Terminal Aerodrome Forecast
Issued by NWS Twin Cities, MN

Home | Current Version | Previous Version | Graphics & Text | Print | Product List | Glossary On
Versions: 1 2 3 4 5 6 7 8 9 10 11 12 13 14 15 16 17 18 19 20 21 22 23 24 25 26 27 28 29 30 31 32
000
FTUS43 KMPX 031942 AAA
TAFMSP
TAF AMD
KMSP 031942Z 0320/0424 26005KT P6SM SCT050 BKN090
     FM032100 35006KT P6SM SCT050 BKN080
     FM032200 35012G20KT P6SM VCTS BKN050CB
      TEMPO 0323/0401 3SM TSRA BKN035CB
     FM040200 35010KT P6SM SCT050
     FM040700 35008KT P6SM BKN250
     FM041300 01010KT P6SM BKN250=

USA.gov is the U.S. government's official web portal to all federal, state and local government web resources and services.